sensor_id;sensor_type;location;lat;lon;timestamp;pressure;altitude;pressure_sealevel;temperature;humidity
50368;BME280;36281;34.132;-118.018;2023-05-20T00:00:33;100152.41;;;24.05;56.31
50368;BME280;36281;34.132;-118.018;2023-05-20T00:03:03;100152.41;;;24.05;55.89
50368;BME280;36281;34.132;-118.018;2023-05-20T00:05:32;100155.19;;;24.00;56.08
50368;BME280;36281;34.132;-118.018;2023-05-20T00:08:01;100144.97;;;23.97;55.99
50368;BME280;36281;34.132;-118.018;2023-05-20T00:10:34;100135.31;;;23.91;56.20
50368;BME280;36281;34.132;-118.018;2023-05-20T00:13:03;100147.75;;;23.92;56.24
50368;BME280;36281;34.132;-118.018;2023-05-20T00:15:34;100152.06;;;23.93;56.16
50368;BME280;36281;34.132;-118.018;2023-05-20T00:18:06;100158.28;;;23.93;55.92
50368;BME280;36281;34.132;-118.018;2023-05-20T00:20:35;100153.75;;;23.89;55.89
50368;BME280;36281;34.132;-118.018;2023-05-20T00:23:04;100154.63;;;23.84;56.04
50368;BME280;36281;34.132;-118.018;2023-05-20T00:25:33;100147.88;;;23.82;56.56
50368;BME280;36281;34.132;-118.018;2023-05-20T00:28:04;100144.09;;;23.83;56.98
50368;BME280;36281;34.132;-118.018;2023-05-20T00:30:34;100145.47;;;23.80;56.29
50368;BME280;36281;34.132;-118.018;2023-05-20T00:33:05;100146.09;;;23.77;56.14
50368;BME280;36281;34.132;-118.018;2023-05-20T00:35:35;100142.84;;;23.75;56.90
50368;BME280;36281;34.132;-118.018;2023-05-20T00:38:04;100145.06;;;23.73;56.40
50368;BME280;36281;34.132;-118.018;2023-05-20T00:40:33;100148.34;;;23.70;56.25
50368;BME280;36281;34.132;-118.018;2023-05-20T00:43:02;100154.63;;;23.65;56.23
50368;BME280;36281;34.132;-118.018;2023-05-20T00:45:31;100148.81;;;23.53;56.27
50368;BME280;36281;34.132;-118.018;2023-05-20T00:48:01;100156.13;;;23.53;56.87
50368;BME280;36281;34.132;-118.018;2023-05-20T00:50:33;100160.50;;;23.48;57.12
50368;BME280;36281;34.132;-118.018;2023-05-20T00:53:02;100152.94;;;23.45;56.98
50368;BME280;36281;34.132;-118.018;2023-05-20T00:55:32;100162.72;;;23.41;57.06
50368;BME280;36281;34.132;-118.018;2023-05-20T00:58:01;100160.91;;;23.37;57.66
50368;BME280;36281;34.132;-118.018;2023-05-20T01:00:30;100146.06;;;23.34;57.39
50368;BME280;36281;34.132;-118.018;2023-05-20T01:03:00;100146.13;;;23.29;57.65
50368;BME280;36281;34.132;-118.018;2023-05-20T01:05:29;100152.09;;;23.26;57.37
50368;BME280;36281;34.132;-118.018;2023-05-20T01:08:00;100154.06;;;23.20;57.94
50368;BME280;36281;34.132;-118.018;2023-05-20T01:10:29;100160.06;;;23.17;58.21
50368;BME280;36281;34.132;-118.018;2023-05-20T01:13:03;100153.38;;;23.10;58.21
50368;BME280;36281;34.132;-118.018;2023-05-20T01:15:34;100152.28;;;23.11;58.46
50368;BME280;36281;34.132;-118.018;2023-05-20T01:18:05;100148.28;;;23.08;58.36
50368;BME280;36281;34.132;-118.018;2023-05-20T01:20:36;100151.56;;;23.05;58.58
50368;BME280;36281;34.132;-118.018;2023-05-20T01:23:08;100149.41;;;23.02;58.67
50368;BME280;36281;34.132;-118.018;2023-05-20T01:25:37;100151.38;;;22.96;58.36
50368;BME280;36281;34.132;-118.018;2023-05-20T01:28:06;100153.63;;;22.89;58.65
50368;BME280;36281;34.132;-118.018;2023-05-20T01:30:38;100155.53;;;22.84;58.57
50368;BME280;36281;34.132;-118.018;2023-05-20T01:33:11;100154.25;;;22.76;58.64
50368;BME280;36281;34.132;-118.018;2023-05-20T01:35:41;100150.81;;;22.70;59.38
50368;BME280;36281;34.132;-118.018;2023-05-20T01:38:13;100152.25;;;22.63;59.72
50368;BME280;36281;34.132;-118.018;2023-05-20T01:40:43;100150.59;;;22.62;59.81
50368;BME280;36281;34.132;-118.018;2023-05-20T01:43:14;100146.66;;;22.54;60.03
50368;BME280;36281;34.132;-118.018;2023-05-20T01:45:44;100145.84;;;22.54;60.18
50368;BME280;36281;34.132;-118.018;2023-05-20T01:48:13;100154.78;;;22.49;60.36
50368;BME280;36281;34.132;-118.018;2023-05-20T01:50:42;100153.75;;;22.45;60.41
50368;BME280;36281;34.132;-118.018;2023-05-20T01:53:13;100158.09;;;22.41;60.28
50368;BME280;36281;34.132;-118.018;2023-05-20T01:55:42;100169.47;;;22.38;60.40
50368;BME280;36281;34.132;-118.018;2023-05-20T01:58:11;100162.47;;;22.32;60.40
50368;BME280;36281;34.132;-118.018;2023-05-20T02:00:40;100164.69;;;22.25;60.47
50368;BME280;36281;34.132;-118.018;2023-05-20T02:03:09;100168.25;;;22.20;60.78
50368;BME280;36281;34.132;-118.018;2023-05-20T02:05:39;100164.50;;;22.16;60.82
50368;BME280;36281;34.132;-118.018;2023-05-20T02:08:09;100174.47;;;22.10;61.10
50368;BME280;36281;34.132;-118.018;2023-05-20T02:10:39;100172.91;;;22.04;61.12
50368;BME280;36281;34.132;-118.018;2023-05-20T02:13:09;100175.91;;;21.98;61.24
50368;BME280;36281;34.132;-118.018;2023-05-20T02:15:40;100187.00;;;21.91;61.17
50368;BME280;36281;34.132;-118.018;2023-05-20T02:18:10;100197.03;;;21.85;61.14
50368;BME280;36281;34.132;-118.018;2023-05-20T02:20:40;100186.28;;;21.80;61.38
50368;BME280;36281;34.132;-118.018;2023-05-20T02:23:10;100194.38;;;21.75;61.08
50368;BME280;36281;34.132;-118.018;2023-05-20T02:25:40;100192.81;;;21.69;61.40
50368;BME280;36281;34.132;-118.018;2023-05-20T02:30:38;100204.97;;;21.61;61.61
50368;BME280;36281;34.132;-118.018;2023-05-20T02:33:07;100199.31;;;21.58;61.75
50368;BME280;36281;34.132;-118.018;2023-05-20T02:35:37;100186.69;;;21.43;62.08
50368;BME280;36281;34.132;-118.018;2023-05-20T02:38:06;100216.31;;;21.48;61.77
50368;BME280;36281;34.132;-118.018;2023-05-20T02:40:35;100218.81;;;21.39;61.83
50368;BME280;36281;34.132;-118.018;2023-05-20T02:43:06;100232.53;;;21.38;61.95
50368;BME280;36281;34.132;-118.018;2023-05-20T02:45:35;100232.28;;;21.29;61.97
50368;BME280;36281;34.132;-118.018;2023-05-20T02:48:05;100242.50;;;21.27;62.03
50368;BME280;36281;34.132;-118.018;2023-05-20T02:50:37;100248.97;;;21.21;62.23
50368;BME280;36281;34.132;-118.018;2023-05-20T02:53:07;100242.00;;;21.15;62.57
50368;BME280;36281;34.132;-118.018;2023-05-20T02:55:36;100251.97;;;21.09;62.69
50368;BME280;36281;34.132;-118.018;2023-05-20T02:58:07;100253.03;;;21.03;62.88
50368;BME280;36281;34.132;-118.018;2023-05-20T03:00:36;100254.13;;;20.97;63.31
50368;BME280;36281;34.132;-118.018;2023-05-20T03:03:08;100265.72;;;20.92;63.56
50368;BME280;36281;34.132;-118.018;2023-05-20T03:05:41;100268.97;;;20.84;63.80
50368;BME280;36281;34.132;-118.018;2023-05-20T03:08:13;100269.75;;;20.80;64.09
50368;BME280;36281;34.132;-118.018;2023-05-20T03:10:42;100277.84;;;20.75;64.60
50368;BME280;36281;34.132;-118.018;2023-05-20T03:13:13;100276.75;;;20.65;64.73
50368;BME280;36281;34.132;-118.018;2023-05-20T03:15:43;100287.00;;;20.69;64.97
50368;BME280;36281;34.132;-118.018;2023-05-20T03:18:13;100286.16;;;20.63;65.33
50368;BME280;36281;34.132;-118.018;2023-05-20T03:20:42;100295.88;;;20.59;65.54
50368;BME280;36281;34.132;-118.018;2023-05-20T03:23:11;100297.47;;;20.50;66.39
50368;BME280;36281;34.132;-118.018;2023-05-20T03:25:40;100305.25;;;20.51;66.67
50368;BME280;36281;34.132;-118.018;2023-05-20T03:28:09;100308.75;;;20.47;66.97
50368;BME280;36281;34.132;-118.018;2023-05-20T03:30:40;100304.69;;;20.44;67.33
50368;BME280;36281;34.132;-118.018;2023-05-20T03:33:09;100306.00;;;20.42;67.48
50368;BME280;36281;34.132;-118.018;2023-05-20T03:35:38;100314.59;;;20.33;67.47
50368;BME280;36281;34.132;-118.018;2023-05-20T03:38:07;100301.97;;;20.29;67.71
50368;BME280;36281;34.132;-118.018;2023-05-20T03:40:36;100312.97;;;20.27;67.90
50368;BME280;36281;34.132;-118.018;2023-05-20T03:43:05;100312.44;;;20.25;67.85
50368;BME280;36281;34.132;-118.018;2023-05-20T03:45:34;100319.94;;;20.23;68.30
50368;BME280;36281;34.132;-118.018;2023-05-20T03:48:06;100320.22;;;20.22;68.50
50368;BME280;36281;34.132;-118.018;2023-05-20T03:50:35;100327.19;;;20.18;68.60
50368;BME280;36281;34.132;-118.018;2023-05-20T03:53:04;100326.38;;;20.17;68.79
50368;BME280;36281;34.132;-118.018;2023-05-20T03:55:34;100331.22;;;20.15;68.97
50368;BME280;36281;34.132;-118.018;2023-05-20T03:58:03;100332.03;;;20.10;69.04
50368;BME280;36281;34.132;-118.018;2023-05-20T04:00:32;100332.03;;;20.10;69.10
50368;BME280;36281;34.132;-118.018;2023-05-20T04:03:01;100341.16;;;20.09;69.02
50368;BME280;36281;34.132;-118.018;2023-05-20T04:05:33;100336.56;;;20.05;69.43
50368;BME280;36281;34.132;-118.018;2023-05-20T04:08:03;100337.63;;;20.04;69.41
50368;BME280;36281;34.132;-118.018;2023-05-20T04:10:35;100338.16;;;20.01;69.59
50368;BME280;36281;34.132;-118.018;2023-05-20T04:13:04;100341.63;;;19.96;69.71
50368;BME280;36281;34.132;-118.018;2023-05-20T04:15:35;100342.16;;;19.93;69.81
50368;BME280;36281;34.132;-118.018;2023-05-20T04:18:04;100337.31;;;19.90;70.06
50368;BME280;36281;34.132;-118.018;2023-05-20T04:20:35;100343.19;;;19.87;70.21
50368;BME280;36281;34.132;-118.018;2023-05-20T04:23:04;100340.78;;;19.85;70.32
50368;BME280;36281;34.132;-118.018;2023-05-20T04:25:33;100347.25;;;19.84;70.64
50368;BME280;36281;34.132;-118.018;2023-05-20T04:28:04;100341.84;;;19.79;70.69
50368;BME280;36281;34.132;-118.018;2023-05-20T04:30:33;100349.06;;;19.79;70.82
50368;BME280;36281;34.132;-118.018;2023-05-20T04:33:03;100345.56;;;19.78;70.94
50368;BME280;36281;34.132;-118.018;2023-05-20T04:35:32;100337.25;;;19.75;71.16
50368;BME280;36281;34.132;-118.018;2023-05-20T04:38:04;100343.66;;;19.74;71.23
50368;BME280;36281;34.132;-118.018;2023-05-20T04:40:33;100346.63;;;19.72;71.19
50368;BME280;36281;34.132;-118.018;2023-05-20T04:43:02;100341.50;;;19.71;71.65
50368;BME280;36281;34.132;-118.018;2023-05-20T04:45:31;100344.19;;;19.71;71.36
50368;BME280;36281;34.132;-118.018;2023-05-20T04:48:01;100354.13;;;19.70;71.42
50368;BME280;36281;34.132;-118.018;2023-05-20T04:50:31;100352.22;;;19.66;71.54
50368;BME280;36281;34.132;-118.018;2023-05-20T04:53:00;100363.22;;;19.64;71.60
50368;BME280;36281;34.132;-118.018;2023-05-20T04:55:32;100374.22;;;19.62;71.78
50368;BME280;36281;34.132;-118.018;2023-05-20T04:58:01;100375.56;;;19.60;71.87
50368;BME280;36281;34.132;-118.018;2023-05-20T05:00:31;100381.75;;;19.60;71.97
50368;BME280;36281;34.132;-118.018;2023-05-20T05:03:00;100381.44;;;19.57;72.13
50368;BME280;36281;34.132;-118.018;2023-05-20T05:05:29;100378.19;;;19.55;72.25
50368;BME280;36281;34.132;-118.018;2023-05-20T05:07:58;100376.81;;;19.52;72.44
50368;BME280;36281;34.132;-118.018;2023-05-20T05:10:27;100383.28;;;19.51;72.37
50368;BME280;36281;34.132;-118.018;2023-05-20T05:12:58;100367.66;;;19.48;72.39
50368;BME280;36281;34.132;-118.018;2023-05-20T05:15:28;100375.19;;;19.46;72.69
50368;BME280;36281;34.132;-118.018;2023-05-20T05:17:57;100360.94;;;19.46;72.85
50368;BME280;36281;34.132;-118.018;2023-05-20T05:20:26;100359.56;;;19.43;72.96
50368;BME280;36281;34.132;-118.018;2023-05-20T05:22:55;100364.66;;;19.40;72.97
50368;BME280;36281;34.132;-118.018;2023-05-20T05:25:24;100356.84;;;19.38;73.21
50368;BME280;36281;34.132;-118.018;2023-05-20T05:27:53;100356.84;;;19.38;73.28
50368;BME280;36281;34.132;-118.018;2023-05-20T05:30:24;100346.91;;;19.38;73.25
50368;BME280;36281;34.132;-118.018;2023-05-20T05:32:53;100353.09;;;19.39;73.47
50368;BME280;36281;34.132;-118.018;2023-05-20T05:35:23;100350.66;;;19.37;73.41
50368;BME280;36281;34.132;-118.018;2023-05-20T05:37:52;100345.81;;;19.34;73.46
50368;BME280;36281;34.132;-118.018;2023-05-20T05:40:21;100339.63;;;19.34;73.59
50368;BME280;36281;34.132;-118.018;2023-05-20T05:42:50;100340.69;;;19.33;73.91
50368;BME280;36281;34.132;-118.018;2023-05-20T05:45:19;100339.63;;;19.34;73.77
50368;BME280;36281;34.132;-118.018;2023-05-20T05:47:49;100338.00;;;19.33;73.57
50368;BME280;36281;34.132;-118.018;2023-05-20T05:50:19;100339.06;;;19.32;73.72
50368;BME280;36281;34.132;-118.018;2023-05-20T05:52:48;100337.72;;;19.29;73.73
50368;BME280;36281;34.132;-118.018;2023-05-20T05:55:17;100337.16;;;19.27;73.75
50368;BME280;36281;34.132;-118.018;2023-05-20T05:57:47;100338.50;;;19.25;73.91
50368;BME280;36281;34.132;-118.018;2023-05-20T06:00:17;100334.72;;;19.21;74.06
50368;BME280;36281;34.132;-118.018;2023-05-20T06:02:46;100347.31;;;19.20;74.17
50368;BME280;36281;34.132;-118.018;2023-05-20T06:05:18;100339.78;;;19.17;74.50
50368;BME280;36281;34.132;-118.018;2023-05-20T06:07:47;100342.97;;;19.14;74.54
50368;BME280;36281;34.132;-118.018;2023-05-20T06:10:16;100348.84;;;19.11;74.56
50368;BME280;36281;34.132;-118.018;2023-05-20T06:12:45;100340.00;;;19.10;74.69
50368;BME280;36281;34.132;-118.018;2023-05-20T06:15:14;100338.38;;;19.09;74.94
50368;BME280;36281;34.132;-118.018;2023-05-20T06:17:44;100322.47;;;19.03;74.98
50368;BME280;36281;34.132;-118.018;2023-05-20T06:20:13;100334.31;;;19.07;75.07
50368;BME280;36281;34.132;-118.018;2023-05-20T06:22:44;100335.41;;;19.06;75.30
50368;BME280;36281;34.132;-118.018;2023-05-20T06:25:13;100338.09;;;19.06;75.13
50368;BME280;36281;34.132;-118.018;2023-05-20T06:27:43;100337.28;;;19.05;75.05
50368;BME280;36281;34.132;-118.018;2023-05-20T06:30:13;100329.97;;;19.01;75.23
50368;BME280;36281;34.132;-118.018;2023-05-20T06:32:42;100331.88;;;19.00;75.24
50368;BME280;36281;34.132;-118.018;2023-05-20T06:35:11;100332.09;;;18.99;75.66
50368;BME280;36281;34.132;-118.018;2023-05-20T06:37:40;100332.63;;;18.96;75.46
50368;BME280;36281;34.132;-118.018;2023-05-20T06:40:12;100331.28;;;18.98;75.63
50368;BME280;36281;34.132;-118.018;2023-05-20T06:42:41;100336.13;;;18.96;75.50
50368;BME280;36281;34.132;-118.018;2023-05-20T06:45:10;100340.41;;;18.97;75.75
50368;BME280;36281;34.132;-118.018;2023-05-20T06:47:41;100335.84;;;18.98;75.51
50368;BME280;36281;34.132;-118.018;2023-05-20T06:50:11;100333.16;;;18.98;75.47
50368;BME280;36281;34.132;-118.018;2023-05-20T06:52:40;100335.31;;;18.96;75.80
50368;BME280;36281;34.132;-118.018;2023-05-20T06:55:11;100337.69;;;18.92;75.70
50368;BME280;36281;34.132;-118.018;2023-05-20T06:57:40;100342.25;;;18.92;75.91
50368;BME280;36281;34.132;-118.018;2023-05-20T07:00:10;100336.06;;;18.91;76.07
50368;BME280;36281;34.132;-118.018;2023-05-20T07:02:41;100343.06;;;18.92;76.21
50368;BME280;36281;34.132;-118.018;2023-05-20T07:05:11;100343.59;;;18.94;76.15
50368;BME280;36281;34.132;-118.018;2023-05-20T07:07:40;100344.44;;;18.95;76.12
50368;BME280;36281;34.132;-118.018;2023-05-20T07:10:11;100331.81;;;18.95;76.18
50368;BME280;36281;34.132;-118.018;2023-05-20T07:12:40;100335.53;;;18.94;76.09
50368;BME280;36281;34.132;-118.018;2023-05-20T07:15:10;100326.38;;;18.85;75.91
50368;BME280;36281;34.132;-118.018;2023-05-20T07:17:39;100341.97;;;18.93;76.13
50368;BME280;36281;34.132;-118.018;2023-05-20T07:20:09;100329.91;;;18.91;75.96
50368;BME280;36281;34.132;-118.018;2023-05-20T07:22:38;100339.25;;;18.88;76.20
50368;BME280;36281;34.132;-118.018;2023-05-20T07:25:07;100337.09;;;18.85;76.13
50368;BME280;36281;34.132;-118.018;2023-05-20T07:27:38;100336.25;;;18.84;76.38
50368;BME280;36281;34.132;-118.018;2023-05-20T07:30:08;100335.47;;;18.84;76.54
50368;BME280;36281;34.132;-118.018;2023-05-20T07:32:37;100337.34;;;18.83;76.36
50368;BME280;36281;34.132;-118.018;2023-05-20T07:35:07;100335.19;;;18.80;76.59
50368;BME280;36281;34.132;-118.018;2023-05-20T07:37:36;100331.69;;;18.80;76.59
50368;BME280;36281;34.132;-118.018;2023-05-20T07:40:07;100338.09;;;18.79;76.83
50368;BME280;36281;34.132;-118.018;2023-05-20T07:42:38;100345.59;;;18.77;76.84
50368;BME280;36281;34.132;-118.018;2023-05-20T07:45:08;100355.25;;;18.78;77.00
50368;BME280;36281;34.132;-118.018;2023-05-20T07:47:37;100349.03;;;18.72;76.95
50368;BME280;36281;34.132;-118.018;2023-05-20T07:50:07;100366.25;;;18.76;77.06
50368;BME280;36281;34.132;-118.018;2023-05-20T07:52:36;100363.31;;;18.78;76.75
50368;BME280;36281;34.132;-118.018;2023-05-20T07:55:22;100370.28;;;18.79;76.76
50368;BME280;36281;34.132;-118.018;2023-05-20T07:57:53;100377.31;;;18.80;76.90
50368;BME280;36281;34.132;-118.018;2023-05-20T08:00:22;100384.28;;;18.81;76.73
50368;BME280;36281;34.132;-118.018;2023-05-20T08:02:54;100381.03;;;18.79;76.56
50368;BME280;36281;34.132;-118.018;2023-05-20T08:05:24;100385.34;;;18.80;76.62
50368;BME280;36281;34.132;-118.018;2023-05-20T08:07:53;100395.25;;;18.79;76.46
50368;BME280;36281;34.132;-118.018;2023-05-20T08:10:22;100387.41;;;18.73;76.41
50368;BME280;36281;34.132;-118.018;2023-05-20T08:12:53;100403.03;;;18.76;76.54
50368;BME280;36281;34.132;-118.018;2023-05-20T08:15:22;100408.38;;;18.76;76.48
50368;BME280;36281;34.132;-118.018;2023-05-20T08:17:51;100403.03;;;18.76;76.43
50368;BME280;36281;34.132;-118.018;2023-05-20T08:20:20;100415.63;;;18.75;76.56
50368;BME280;36281;34.132;-118.018;2023-05-20T08:22:49;100409.47;;;18.75;76.64
50368;BME280;36281;34.132;-118.018;2023-05-20T08:25:18;100414.25;;;18.73;76.50
50368;BME280;36281;34.132;-118.018;2023-05-20T08:27:47;100418.53;;;18.74;76.71
50368;BME280;36281;34.132;-118.018;2023-05-20T08:30:18;100416.94;;;18.73;76.62
50368;BME280;36281;34.132;-118.018;2023-05-20T08:32:47;100416.94;;;18.73;76.63
50368;BME280;36281;34.132;-118.018;2023-05-20T08:35:17;100418.81;;;18.72;76.70
50368;BME280;36281;34.132;-118.018;2023-05-20T08:37:48;100413.44;;;18.72;76.94
50368;BME280;36281;34.132;-118.018;2023-05-20T08:40:17;100414.75;;;18.70;76.97
50368;BME280;36281;34.132;-118.018;2023-05-20T08:42:50;100413.19;;;18.74;77.18
50368;BME280;36281;34.132;-118.018;2023-05-20T08:45:24;100392.63;;;18.63;77.02
50368;BME280;36281;34.132;-118.018;2023-05-20T08:47:57;100415.84;;;18.74;77.07
50368;BME280;36281;34.132;-118.018;2023-05-20T08:50:26;100410.81;;;18.77;77.15
50368;BME280;36281;34.132;-118.018;2023-05-20T08:52:55;100400.56;;;18.74;77.25
50368;BME280;36281;34.132;-118.018;2023-05-20T08:55:25;100390.09;;;18.73;77.02
50368;BME280;36281;34.132;-118.018;2023-05-20T08:57:58;100381.78;;;18.74;77.43
50368;BME280;36281;34.132;-118.018;2023-05-20T09:00:29;100357.63;;;18.74;77.56
50368;BME280;36281;34.132;-118.018;2023-05-20T09:02:59;100346.09;;;18.74;77.88
50368;BME280;36281;34.132;-118.018;2023-05-20T09:05:29;100339.91;;;18.73;77.94
50368;BME280;36281;34.132;-118.018;2023-05-20T09:08:06;100348.53;;;18.75;77.79
50368;BME280;36281;34.132;-118.018;2023-05-20T09:10:34;100332.44;;;18.75;77.73
50368;BME280;36281;34.132;-118.018;2023-05-20T09:13:04;100323.53;;;18.70;77.59
50368;BME280;36281;34.132;-118.018;2023-05-20T09:15:36;100326.69;;;18.67;77.63
50368;BME280;36281;34.132;-118.018;2023-05-20T09:18:06;100322.88;;;18.63;77.91
50368;BME280;36281;34.132;-118.018;2023-05-20T09:20:37;100326.94;;;18.65;78.07
50368;BME280;36281;34.132;-118.018;2023-05-20T09:23:08;100338.72;;;18.64;77.85
50368;BME280;36281;34.132;-118.018;2023-05-20T09:25:37;100335.50;;;18.62;78.20
50368;BME280;36281;34.132;-118.018;2023-05-20T09:28:07;100340.59;;;18.64;78.19
50368;BME280;36281;34.132;-118.018;2023-05-20T09:30:38;100333.63;;;18.63;78.04
50368;BME280;36281;34.132;-118.018;2023-05-20T09:33:07;100326.13;;;18.65;78.00
50368;BME280;36281;34.132;-118.018;2023-05-20T09:35:36;100319.13;;;18.64;78.01
50368;BME280;36281;34.132;-118.018;2023-05-20T09:38:06;100326.13;;;18.65;78.30
50368;BME280;36281;34.132;-118.018;2023-05-20T09:40:37;100322.88;;;18.63;78.24
50368;BME280;36281;34.132;-118.018;2023-05-20T09:43:08;100323.69;;;18.63;78.39
50368;BME280;36281;34.132;-118.018;2023-05-20T09:45:40;100326.13;;;18.65;78.29
50368;BME280;36281;34.132;-118.018;2023-05-20T09:48:10;100313.19;;;18.56;78.37
50368;BME280;36281;34.132;-118.018;2023-05-20T09:50:41;100333.34;;;18.64;78.27
50368;BME280;36281;34.132;-118.018;2023-05-20T09:53:11;100334.38;;;18.58;78.25
50368;BME280;36281;34.132;-118.018;2023-05-20T09:55:41;100339.00;;;18.63;77.95
50368;BME280;36281;34.132;-118.018;2023-05-20T09:58:12;100334.13;;;18.59;78.09
50368;BME280;36281;34.132;-118.018;2023-05-20T10:00:44;100329.59;;;18.60;78.14
50368;BME280;36281;34.132;-118.018;2023-05-20T10:03:13;100337.63;;;18.60;78.25
50368;BME280;36281;34.132;-118.018;2023-05-20T10:05:47;100335.75;;;18.60;78.31
50368;BME280;36281;34.132;-118.018;2023-05-20T10:08:36;100326.66;;;18.62;78.31
50368;BME280;36281;34.132;-118.018;2023-05-20T10:18:48;100333.53;;;18.52;78.48
50368;BME280;36281;34.132;-118.018;2023-05-20T10:21:22;100330.84;;;18.52;78.58
50368;BME280;36281;34.132;-118.018;2023-05-20T10:23:51;100327.91;;;18.54;78.52
50368;BME280;36281;34.132;-118.018;2023-05-20T10:26:21;100330.56;;;18.54;78.65
50368;BME280;36281;34.132;-118.018;2023-05-20T10:28:50;100326.03;;;18.54;78.62
50368;BME280;36281;34.132;-118.018;2023-05-20T10:31:21;100333.25;;;18.54;78.92
50368;BME280;36281;34.132;-118.018;2023-05-20T10:33:52;100322.78;;;18.52;78.92
50368;BME280;36281;34.132;-118.018;2023-05-20T10:36:26;100321.72;;;18.53;78.69
50368;BME280;36281;34.132;-118.018;2023-05-20T10:38:57;100329.78;;;18.53;78.77
50368;BME280;36281;34.132;-118.018;2023-05-20T10:41:27;100328.97;;;18.53;78.91
50368;BME280;36281;34.132;-118.018;2023-05-20T10:44:00;100315.28;;;18.54;78.90
50368;BME280;36281;34.132;-118.018;2023-05-20T10:46:31;100312.06;;;18.52;78.97
50368;BME280;36281;34.132;-118.018;2023-05-20T10:49:22;100317.75;;;18.56;78.95
50368;BME280;36281;34.132;-118.018;2023-05-20T10:51:54;100316.94;;;18.55;78.88
50368;BME280;36281;34.132;-118.018;2023-05-20T10:54:23;100314.75;;;18.52;78.85
50368;BME280;36281;34.132;-118.018;2023-05-20T10:56:53;100302.66;;;18.50;79.06
50368;BME280;36281;34.132;-118.018;2023-05-20T10:59:22;100306.38;;;18.49;78.96
50368;BME280;36281;34.132;-118.018;2023-05-20T11:01:53;100291.38;;;18.48;79.39
50368;BME280;36281;34.132;-118.018;2023-05-20T11:04:24;100287.59;;;18.49;79.32
50368;BME280;36281;34.132;-118.018;2023-05-20T11:06:54;100283.06;;;18.49;79.45
50368;BME280;36281;34.132;-118.018;2023-05-20T11:09:24;100287.38;;;18.50;79.38
50368;BME280;36281;34.132;-118.018;2023-05-20T11:11:53;100282.50;;;18.47;79.50
50368;BME280;36281;34.132;-118.018;2023-05-20T11:14:23;100282.00;;;18.50;79.32
50368;BME280;36281;34.132;-118.018;2023-05-20T11:16:52;100262.06;;;18.41;79.38
50368;BME280;36281;34.132;-118.018;2023-05-20T11:19:25;100271.78;;;18.47;79.46
50368;BME280;36281;34.132;-118.018;2023-05-20T11:21:55;100268.28;;;18.47;79.50
50368;BME280;36281;34.132;-118.018;2023-05-20T11:24:26;100277.91;;;18.43;79.45
50368;BME280;36281;34.132;-118.018;2023-05-20T11:26:55;100275.75;;;18.45;79.65
50368;BME280;36281;34.132;-118.018;2023-05-20T11:29:26;100277.63;;;18.44;79.48
50368;BME280;36281;34.132;-118.018;2023-05-20T11:31:56;100280.59;;;18.43;79.30
50368;BME280;36281;34.132;-118.018;2023-05-20T11:34:33;100282.72;;;18.41;79.40
50368;BME280;36281;34.132;-118.018;2023-05-20T11:37:06;100291.81;;;18.40;79.35
50368;BME280;36281;34.132;-118.018;2023-05-20T11:39:36;100302.78;;;18.38;79.48
50368;BME280;36281;34.132;-118.018;2023-05-20T11:42:06;100311.41;;;18.40;79.48
50368;BME280;36281;34.132;-118.018;2023-05-20T11:44:35;100301.72;;;18.39;79.22
50368;BME280;36281;34.132;-118.018;2023-05-20T11:47:04;100307.63;;;18.36;79.26
50368;BME280;36281;34.132;-118.018;2023-05-20T11:49:40;100314.03;;;18.35;79.49
50368;BME280;36281;34.132;-118.018;2023-05-20T11:52:09;100318.84;;;18.33;79.68
50368;BME280;36281;34.132;-118.018;2023-05-20T11:54:40;100319.91;;;18.32;79.65
50368;BME280;36281;34.132;-118.018;2023-05-20T11:57:10;100311.31;;;18.30;79.87
50368;BME280;36281;34.132;-118.018;2023-05-20T11:59:39;100306.97;;;18.29;79.95
50368;BME280;36281;34.132;-118.018;2023-05-20T12:02:08;100305.56;;;18.21;80.08
50368;BME280;36281;34.132;-118.018;2023-05-20T12:04:39;100332.19;;;18.28;80.21
50368;BME280;36281;34.132;-118.018;2023-05-20T12:07:09;100329.50;;;18.28;80.37
50368;BME280;36281;34.132;-118.018;2023-05-20T12:09:39;100332.44;;;18.26;80.26
50368;BME280;36281;34.132;-118.018;2023-05-20T12:12:08;100336.41;;;18.24;80.18
50368;BME280;36281;34.132;-118.018;2023-05-20T12:14:38;100332.44;;;18.26;80.42
50368;BME280;36281;34.132;-118.018;2023-05-20T12:17:07;100327.06;;;18.26;80.38
50368;BME280;36281;34.132;-118.018;2023-05-20T12:19:37;100324.41;;;18.26;80.35
50368;BME280;36281;34.132;-118.018;2023-05-20T12:22:10;100313.84;;;18.20;80.22
50368;BME280;36281;34.132;-118.018;2023-05-20T12:24:39;100334.31;;;18.26;80.45
50368;BME280;36281;34.132;-118.018;2023-05-20T12:27:08;100326.50;;;18.24;80.51
50368;BME280;36281;34.132;-118.018;2023-05-20T12:29:37;100327.31;;;18.25;80.80
50368;BME280;36281;34.132;-118.018;2023-05-20T12:32:07;100321.13;;;18.24;80.96
50368;BME280;36281;34.132;-118.018;2023-05-20T12:34:36;100316.59;;;18.25;80.94
50368;BME280;36281;34.132;-118.018;2023-05-20T12:37:05;100323.81;;;18.24;80.99
50368;BME280;36281;34.132;-118.018;2023-05-20T12:39:36;100328.16;;;18.25;80.66
50368;BME280;36281;34.132;-118.018;2023-05-20T12:42:05;100321.13;;;18.24;80.92
50368;BME280;36281;34.132;-118.018;2023-05-20T12:44:34;100315.78;;;18.24;80.64